sensor_id;sensor_type;location;lat;lon;timestamp;temperature;humidity
16327;DHT22;34812;49.846;9.610;2023-04-08T00:00:40;2.70;99.90
16327;DHT22;34812;49.846;9.610;2023-04-08T00:01:41;2.70;99.90
16327;DHT22;34812;49.846;9.610;2023-04-08T00:02:43;2.70;99.90
16327;DHT22;34812;49.846;9.610;2023-04-08T00:03:44;2.70;99.90
16327;DHT22;34812;49.846;9.610;2023-04-08T00:04:45;2.70;99.90
16327;DHT22;34812;49.846;9.610;2023-04-08T00:05:46;2.70;99.90
16327;DHT22;34812;49.846;9.610;2023-04-08T00:06:48;2.70;99.90
16327;DHT22;34812;49.846;9.610;2023-04-08T00:07:49;2.70;99.90
16327;DHT22;34812;49.846;9.610;2023-04-08T00:08:50;2.80;99.90
16327;DHT22;34812;49.846;9.610;2023-04-08T00:09:52;2.70;99.90
16327;DHT22;34812;49.846;9.610;2023-04-08T00:10:54;2.80;99.90
16327;DHT22;34812;49.846;9.610;2023-04-08T00:11:55;2.80;99.90
16327;DHT22;34812;49.846;9.610;2023-04-08T00:12:57;2.80;99.90
16327;DHT22;34812;49.846;9.610;2023-04-08T00:13:59;2.90;99.90
16327;DHT22;34812;49.846;9.610;2023-04-08T00:15:00;2.90;99.90
16327;DHT22;34812;49.846;9.610;2023-04-08T00:16:01;2.90;99.90
16327;DHT22;34812;49.846;9.610;2023-04-08T00:17:03;2.90;99.90
16327;DHT22;34812;49.846;9.610;2023-04-08T00:18:04;3.00;99.90
16327;DHT22;34812;49.846;9.610;2023-04-08T00:19:06;3.00;99.90
16327;DHT22;34812;49.846;9.610;2023-04-08T00:20:07;3.00;99.90
16327;DHT22;34812;49.846;9.610;2023-04-08T00:21:09;3.00;99.90
16327;DHT22;34812;49.846;9.610;2023-04-08T00:22:11;3.00;99.90
16327;DHT22;34812;49.846;9.610;2023-04-08T00:23:11;3.00;99.90
16327;DHT22;34812;49.846;9.610;2023-04-08T00:24:13;3.10;99.90
16327;DHT22;34812;49.846;9.610;2023-04-08T00:25:15;3.10;99.90
16327;DHT22;34812;49.846;9.610;2023-04-08T00:26:17;3.20;99.90
16327;DHT22;34812;49.846;9.610;2023-04-08T00:27:18;3.20;99.90
16327;DHT22;34812;49.846;9.610;2023-04-08T00:28:20;3.20;99.90
16327;DHT22;34812;49.846;9.610;2023-04-08T00:29:21;3.30;99.90
16327;DHT22;34812;49.846;9.610;2023-04-08T00:30:22;3.30;99.90
16327;DHT22;34812;49.846;9.610;2023-04-08T00:31:23;3.40;99.90
16327;DHT22;34812;49.846;9.610;2023-04-08T00:32:25;3.40;99.90
16327;DHT22;34812;49.846;9.610;2023-04-08T00:33:27;3.40;99.90
16327;DHT22;34812;49.846;9.610;2023-04-08T00:34:28;3.50;99.90
16327;DHT22;34812;49.846;9.610;2023-04-08T00:35:29;3.50;99.90
16327;DHT22;34812;49.846;9.610;2023-04-08T00:36:31;3.50;99.90
16327;DHT22;34812;49.846;9.610;2023-04-08T00:37:32;3.50;99.90
16327;DHT22;34812;49.846;9.610;2023-04-08T00:38:34;3.50;99.90
16327;DHT22;34812;49.846;9.610;2023-04-08T00:39:36;3.50;99.90
16327;DHT22;34812;49.846;9.610;2023-04-08T00:40:39;3.50;99.90
16327;DHT22;34812;49.846;9.610;2023-04-08T00:41:40;3.50;99.90
16327;DHT22;34812;49.846;9.610;2023-04-08T00:42:42;3.60;99.90
16327;DHT22;34812;49.846;9.610;2023-04-08T00:43:43;3.60;99.90
16327;DHT22;34812;49.846;9.610;2023-04-08T00:44:45;3.60;99.90
16327;DHT22;34812;49.846;9.610;2023-04-08T00:45:45;3.70;99.90
16327;DHT22;34812;49.846;9.610;2023-04-08T00:46:47;3.70;99.90
16327;DHT22;34812;49.846;9.610;2023-04-08T00:47:48;3.70;99.90
16327;DHT22;34812;49.846;9.610;2023-04-08T00:48:52;3.70;99.90
16327;DHT22;34812;49.846;9.610;2023-04-08T00:49:53;3.80;99.90
16327;DHT22;34812;49.846;9.610;2023-04-08T00:50:55;3.80;99.90
16327;DHT22;34812;49.846;9.610;2023-04-08T00:51:57;3.80;99.90
16327;DHT22;34812;49.846;9.610;2023-04-08T00:52:59;3.90;99.90
16327;DHT22;34812;49.846;9.610;2023-04-08T00:54:00;3.90;99.90
16327;DHT22;34812;49.846;9.610;2023-04-08T00:55:02;3.90;99.90
16327;DHT22;34812;49.846;9.610;2023-04-08T00:56:04;3.90;99.90
16327;DHT22;34812;49.846;9.610;2023-04-08T00:57:07;3.90;99.90
16327;DHT22;34812;49.846;9.610;2023-04-08T00:58:08;3.90;99.90
16327;DHT22;34812;49.846;9.610;2023-04-08T00:59:09;4.00;99.90
16327;DHT22;34812;49.846;9.610;2023-04-08T01:00:13;4.00;99.90
16327;DHT22;34812;49.846;9.610;2023-04-08T01:01:21;4.00;99.90
16327;DHT22;34812;49.846;9.610;2023-04-08T01:02:32;4.00;99.90
16327;DHT22;34812;49.846;9.610;2023-04-08T01:03:41;4.00;99.90
16327;DHT22;34812;49.846;9.610;2023-04-08T01:04:51;4.00;99.90
16327;DHT22;34812;49.846;9.610;2023-04-08T01:05:57;4.10;99.90
16327;DHT22;34812;49.846;9.610;2023-04-08T01:07:06;4.10;99.90
16327;DHT22;34812;49.846;9.610;2023-04-08T01:08:09;4.10;99.90
16327;DHT22;34812;49.846;9.610;2023-04-08T01:09:13;4.10;99.90
16327;DHT22;34812;49.846;9.610;2023-04-08T01:10:20;4.10;99.90
16327;DHT22;34812;49.846;9.610;2023-04-08T01:11:26;4.10;99.90
16327;DHT22;34812;49.846;9.610;2023-04-08T01:12:29;4.10;99.90
16327;DHT22;34812;49.846;9.610;2023-04-08T01:13:37;4.10;99.90
16327;DHT22;34812;49.846;9.610;2023-04-08T01:14:41;4.20;99.90
16327;DHT22;34812;49.846;9.610;2023-04-08T01:15:45;4.20;99.90
16327;DHT22;34812;49.846;9.610;2023-04-08T01:16:46;4.20;99.90
16327;DHT22;34812;49.846;9.610;2023-04-08T01:17:52;4.20;99.90
16327;DHT22;34812;49.846;9.610;2023-04-08T01:18:54;4.20;99.90
16327;DHT22;34812;49.846;9.610;2023-04-08T01:19:57;4.20;99.90
16327;DHT22;34812;49.846;9.610;2023-04-08T01:20:59;4.20;99.90
16327;DHT22;34812;49.846;9.610;2023-04-08T01:22:07;4.20;99.90
16327;DHT22;34812;49.846;9.610;2023-04-08T01:23:17;4.20;99.90
16327;DHT22;34812;49.846;9.610;2023-04-08T01:24:27;4.10;99.90
16327;DHT22;34812;49.846;9.610;2023-04-08T01:25:31;4.10;99.90
16327;DHT22;34812;49.846;9.610;2023-04-08T01:26:35;4.10;99.90
16327;DHT22;34812;49.846;9.610;2023-04-08T01:27:37;4.10;99.90
16327;DHT22;34812;49.846;9.610;2023-04-08T01:28:39;4.10;99.90
16327;DHT22;34812;49.846;9.610;2023-04-08T01:29:44;4.10;99.90
16327;DHT22;34812;49.846;9.610;2023-04-08T01:30:48;4.10;99.90
16327;DHT22;34812;49.846;9.610;2023-04-08T01:31:51;4.10;99.90
16327;DHT22;34812;49.846;9.610;2023-04-08T01:32:54;4.10;99.90
16327;DHT22;34812;49.846;9.610;2023-04-08T01:33:56;4.10;99.90
16327;DHT22;34812;49.846;9.610;2023-04-08T01:35:01;4.10;99.90
16327;DHT22;34812;49.846;9.610;2023-04-08T01:36:03;4.10;99.90
16327;DHT22;34812;49.846;9.610;2023-04-08T01:37:07;4.10;99.90
16327;DHT22;34812;49.846;9.610;2023-04-08T01:38:09;4.10;99.90
16327;DHT22;34812;49.846;9.610;2023-04-08T01:39:13;4.10;99.90
16327;DHT22;34812;49.846;9.610;2023-04-08T01:40:16;4.10;99.90
16327;DHT22;34812;49.846;9.610;2023-04-08T01:41:19;4.20;99.90
16327;DHT22;34812;49.846;9.610;2023-04-08T01:42:23;4.10;99.90
16327;DHT22;34812;49.846;9.610;2023-04-08T01:43:26;4.20;99.90
16327;DHT22;34812;49.846;9.610;2023-04-08T01:44:28;4.20;99.90
16327;DHT22;34812;49.846;9.610;2023-04-08T01:45:32;4.10;99.90
16327;DHT22;34812;49.846;9.610;2023-04-08T01:46:34;4.10;99.90
16327;DHT22;34812;49.846;9.610;2023-04-08T01:47:37;4.10;99.90
16327;DHT22;34812;49.846;9.610;2023-04-08T01:48:39;4.20;99.90
16327;DHT22;34812;49.846;9.610;2023-04-08T01:49:42;4.20;99.90
16327;DHT22;34812;49.846;9.610;2023-04-08T01:50:44;4.20;99.90
16327;DHT22;34812;49.846;9.610;2023-04-08T01:51:47;4.20;99.90
16327;DHT22;34812;49.846;9.610;2023-04-08T01:52:49;4.20;99.90
16327;DHT22;34812;49.846;9.610;2023-04-08T01:53:53;4.20;99.90
16327;DHT22;34812;49.846;9.610;2023-04-08T01:54:55;4.20;99.90
16327;DHT22;34812;49.846;9.610;2023-04-08T01:56:03;4.20;99.90
16327;DHT22;34812;49.846;9.610;2023-04-08T01:57:04;4.20;99.90
16327;DHT22;34812;49.846;9.610;2023-04-08T01:58:16;4.20;99.90
16327;DHT22;34812;49.846;9.610;2023-04-08T01:59:19;4.20;99.90
16327;DHT22;34812;49.846;9.610;2023-04-08T02:00:24;4.20;99.90
16327;DHT22;34812;49.846;9.610;2023-04-08T02:01:26;4.20;99.90
16327;DHT22;34812;49.846;9.610;2023-04-08T02:02:30;4.20;99.90
16327;DHT22;34812;49.846;9.610;2023-04-08T02:03:33;4.20;99.90
16327;DHT22;34812;49.846;9.610;2023-04-08T02:04:36;4.20;99.90
16327;DHT22;34812;49.846;9.610;2023-04-08T02:05:37;4.20;99.90
16327;DHT22;34812;49.846;9.610;2023-04-08T02:06:40;4.20;99.90
16327;DHT22;34812;49.846;9.610;2023-04-08T02:07:41;4.20;99.90
16327;DHT22;34812;49.846;9.610;2023-04-08T02:08:44;4.20;99.90
16327;DHT22;34812;49.846;9.610;2023-04-08T02:09:45;4.20;99.90
16327;DHT22;34812;49.846;9.610;2023-04-08T02:10:47;4.20;99.90
16327;DHT22;34812;49.846;9.610;2023-04-08T02:11:48;4.20;99.90
16327;DHT22;34812;49.846;9.610;2023-04-08T02:12:49;4.20;99.90
16327;DHT22;34812;49.846;9.610;2023-04-08T02:13:52;4.20;99.90
16327;DHT22;34812;49.846;9.610;2023-04-08T02:14:54;4.20;99.90
16327;DHT22;34812;49.846;9.610;2023-04-08T02:16:03;4.20;99.90
16327;DHT22;34812;49.846;9.610;2023-04-08T02:17:08;4.20;99.90
16327;DHT22;34812;49.846;9.610;2023-04-08T02:18:15;4.20;99.90
16327;DHT22;34812;49.846;9.610;2023-04-08T02:19:24;4.20;99.90
16327;DHT22;34812;49.846;9.610;2023-04-08T02:20:31;4.20;99.90
16327;DHT22;34812;49.846;9.610;2023-04-08T02:21:41;4.20;99.90
16327;DHT22;34812;49.846;9.610;2023-04-08T02:22:47;4.20;99.90
16327;DHT22;34812;49.846;9.610;2023-04-08T02:23:50;4.20;99.90
16327;DHT22;34812;49.846;9.610;2023-04-08T02:24:52;4.20;99.90
16327;DHT22;34812;49.846;9.610;2023-04-08T02:25:55;4.20;99.90
16327;DHT22;34812;49.846;9.610;2023-04-08T02:27:02;4.20;99.90
16327;DHT22;34812;49.846;9.610;2023-04-08T02:28:06;4.20;99.90
16327;DHT22;34812;49.846;9.610;2023-04-08T02:29:14;4.20;99.90
16327;DHT22;34812;49.846;9.610;2023-04-08T02:30:17;4.20;99.90
16327;DHT22;34812;49.846;9.610;2023-04-08T02:31:18;4.20;99.90
16327;DHT22;34812;49.846;9.610;2023-04-08T02:32:22;4.20;99.90
16327;DHT22;34812;49.846;9.610;2023-04-08T02:33:25;4.20;99.90
16327;DHT22;34812;49.846;9.610;2023-04-08T02:34:29;4.20;99.90
16327;DHT22;34812;49.846;9.610;2023-04-08T02:35:30;4.20;99.90
16327;DHT22;34812;49.846;9.610;2023-04-08T02:36:33;4.20;99.90
16327;DHT22;34812;49.846;9.610;2023-04-08T02:37:36;4.20;99.90
16327;DHT22;34812;49.846;9.610;2023-04-08T02:38:38;4.20;99.90
16327;DHT22;34812;49.846;9.610;2023-04-08T02:39:39;4.20;99.90
16327;DHT22;34812;49.846;9.610;2023-04-08T02:40:41;4.20;99.90
16327;DHT22;34812;49.846;9.610;2023-04-08T02:41:41;4.20;99.90
16327;DHT22;34812;49.846;9.610;2023-04-08T02:42:43;4.20;99.90
16327;DHT22;34812;49.846;9.610;2023-04-08T02:43:44;4.20;99.90
16327;DHT22;34812;49.846;9.610;2023-04-08T02:44:49;4.20;99.90
16327;DHT22;34812;49.846;9.610;2023-04-08T02:45:50;4.20;99.90
16327;DHT22;34812;49.846;9.610;2023-04-08T02:46:52;4.20;99.90
16327;DHT22;34812;49.846;9.610;2023-04-08T02:47:54;4.20;99.90
16327;DHT22;34812;49.846;9.610;2023-04-08T02:48:55;4.20;99.90
16327;DHT22;34812;49.846;9.610;2023-04-08T02:49:57;4.20;99.90
16327;DHT22;34812;49.846;9.610;2023-04-08T02:50:57;4.20;99.90
16327;DHT22;34812;49.846;9.610;2023-04-08T02:51:59;4.20;99.90
16327;DHT22;34812;49.846;9.610;2023-04-08T02:53:00;4.30;99.90
16327;DHT22;34812;49.846;9.610;2023-04-08T02:54:04;4.30;99.90
16327;DHT22;34812;49.846;9.610;2023-04-08T02:55:06;4.30;99.90
16327;DHT22;34812;49.846;9.610;2023-04-08T02:56:09;4.30;99.90
16327;DHT22;34812;49.846;9.610;2023-04-08T02:57:10;4.30;99.90
16327;DHT22;34812;49.846;9.610;2023-04-08T02:58:12;4.30;99.90
16327;DHT22;34812;49.846;9.610;2023-04-08T02:59:13;4.30;99.90
16327;DHT22;34812;49.846;9.610;2023-04-08T03:00:16;4.30;99.90
16327;DHT22;34812;49.846;9.610;2023-04-08T03:01:17;4.30;99.90
16327;DHT22;34812;49.846;9.610;2023-04-08T03:02:19;4.30;99.90
16327;DHT22;34812;49.846;9.610;2023-04-08T03:03:20;4.30;99.90
16327;DHT22;34812;49.846;9.610;2023-04-08T03:04:27;4.30;99.90
16327;DHT22;34812;49.846;9.610;2023-04-08T03:05:27;4.30;99.90
16327;DHT22;34812;49.846;9.610;2023-04-08T03:06:29;4.20;99.90
16327;DHT22;34812;49.846;9.610;2023-04-08T03:07:31;4.30;99.90
16327;DHT22;34812;49.846;9.610;2023-04-08T03:08:33;4.30;99.90
16327;DHT22;34812;49.846;9.610;2023-04-08T03:09:34;4.30;99.90
16327;DHT22;34812;49.846;9.610;2023-04-08T03:10:36;4.30;99.90
16327;DHT22;34812;49.846;9.610;2023-04-08T03:11:37;4.30;99.90
16327;DHT22;34812;49.846;9.610;2023-04-08T03:12:38;4.30;99.90
16327;DHT22;34812;49.846;9.610;2023-04-08T03:13:39;4.30;99.90
16327;DHT22;34812;49.846;9.610;2023-04-08T03:14:41;4.30;99.90
16327;DHT22;34812;49.846;9.610;2023-04-08T03:15:43;4.30;99.90
16327;DHT22;34812;49.846;9.610;2023-04-08T03:16:45;4.30;99.90
16327;DHT22;34812;49.846;9.610;2023-04-08T03:17:46;4.30;99.90
16327;DHT22;34812;49.846;9.610;2023-04-08T03:18:48;4.30;99.90
16327;DHT22;34812;49.846;9.610;2023-04-08T03:19:50;4.30;99.90
16327;DHT22;34812;49.846;9.610;2023-04-08T03:20:51;4.30;99.90
16327;DHT22;34812;49.846;9.610;2023-04-08T03:21:52;4.30;99.90
16327;DHT22;34812;49.846;9.610;2023-04-08T03:22:54;4.30;99.90
16327;DHT22;34812;49.846;9.610;2023-04-08T03:23:55;4.30;99.90
16327;DHT22;34812;49.846;9.610;2023-04-08T03:24:56;4.30;99.90
16327;DHT22;34812;49.846;9.610;2023-04-08T03:25:57;4.30;99.90
16327;DHT22;34812;49.846;9.610;2023-04-08T03:26:59;4.30;99.90
16327;DHT22;34812;49.846;9.610;2023-04-08T03:28:00;4.30;99.90
16327;DHT22;34812;49.846;9.610;2023-04-08T03:29:02;4.20;99.90
16327;DHT22;34812;49.846;9.610;2023-04-08T03:30:03;4.20;99.90
16327;DHT22;34812;49.846;9.610;2023-04-08T03:31:06;4.20;99.90
16327;DHT22;34812;49.846;9.610;2023-04-08T03:32:07;4.20;99.90
16327;DHT22;34812;49.846;9.610;2023-04-08T03:33:09;4.20;99.90
16327;DHT22;34812;49.846;9.610;2023-04-08T03:34:10;4.20;99.90
16327;DHT22;34812;49.846;9.610;2023-04-08T03:35:11;4.20;99.90
16327;DHT22;34812;49.846;9.610;2023-04-08T03:36:12;4.20;99.90
16327;DHT22;34812;49.846;9.610;2023-04-08T03:37:14;4.20;99.90
16327;DHT22;34812;49.846;9.610;2023-04-08T03:38:15;4.20;99.90
16327;DHT22;34812;49.846;9.610;2023-04-08T03:39:18;4.20;99.90
16327;DHT22;34812;49.846;9.610;2023-04-08T03:40:19;4.20;99.90
16327;DHT22;34812;49.846;9.610;2023-04-08T03:41:21;4.20;99.90
16327;DHT22;34812;49.846;9.610;2023-04-08T03:42:22;4.20;99.90
16327;DHT22;34812;49.846;9.610;2023-04-08T03:43:24;4.20;99.90
16327;DHT22;34812;49.846;9.610;2023-04-08T03:44:25;4.20;99.90
16327;DHT22;34812;49.846;9.610;2023-04-08T03:45:26;4.20;99.90
16327;DHT22;34812;49.846;9.610;2023-04-08T03:46:29;4.20;99.90
16327;DHT22;34812;49.846;9.610;2023-04-08T03:47:30;4.20;99.90
16327;DHT22;34812;49.846;9.610;2023-04-08T03:48:31;4.20;99.90
16327;DHT22;34812;49.846;9.610;2023-04-08T03:49:33;4.20;99.90
16327;DHT22;34812;49.846;9.610;2023-04-08T03:50:34;4.20;99.90
16327;DHT22;34812;49.846;9.610;2023-04-08T03:51:35;4.10;99.90
16327;DHT22;34812;49.846;9.610;2023-04-08T03:52:36;4.10;99.90
16327;DHT22;34812;49.846;9.610;2023-04-08T03:53:38;4.10;99.90
16327;DHT22;34812;49.846;9.610;2023-04-08T03:54:39;4.10;99.90
16327;DHT22;34812;49.846;9.610;2023-04-08T03:55:40;4.10;99.90
16327;DHT22;34812;49.846;9.610;2023-04-08T03:56:41;4.10;99.90
16327;DHT22;34812;49.846;9.610;2023-04-08T03:57:43;4.10;99.90
16327;DHT22;34812;49.846;9.610;2023-04-08T03:58:44;4.10;99.90
16327;DHT22;34812;49.846;9.610;2023-04-08T03:59:46;4.10;99.90
16327;DHT22;34812;49.846;9.610;2023-04-08T04:00:47;4.10;99.90
16327;DHT22;34812;49.846;9.610;2023-04-08T04:01:50;4.10;99.90
16327;DHT22;34812;49.846;9.610;2023-04-08T04:02:52;4.10;99.90
16327;DHT22;34812;49.846;9.610;2023-04-08T04:03:55;4.10;99.90
16327;DHT22;34812;49.846;9.610;2023-04-08T04:04:56;4.10;99.90
16327;DHT22;34812;49.846;9.610;2023-04-08T04:05:58;4.10;99.90
16327;DHT22;34812;49.846;9.610;2023-04-08T04:06:58;4.10;99.90
16327;DHT22;34812;49.846;9.610;2023-04-08T04:08:00;4.10;99.90
16327;DHT22;34812;49.846;9.610;2023-04-08T04:09:01;4.10;99.90
16327;DHT22;34812;49.846;9.610;2023-04-08T04:10:03;4.20;99.90
16327;DHT22;34812;49.846;9.610;2023-04-08T04:11:04;4.20;99.90
16327;DHT22;34812;49.846;9.610;2023-04-08T04:12:06;4.20;99.90
16327;DHT22;34812;49.846;9.610;2023-04-08T04:13:07;4.20;99.90
16327;DHT22;34812;49.846;9.610;2023-04-08T04:14:08;4.20;99.90
16327;DHT22;34812;49.846;9.610;2023-04-08T04:15:10;4.20;99.90
16327;DHT22;34812;49.846;9.610;2023-04-08T04:16:12;4.20;99.90
16327;DHT22;34812;49.846;9.610;2023-04-08T04:17:14;4.20;99.90
16327;DHT22;34812;49.846;9.610;2023-04-08T04:18:16;4.10;99.90
16327;DHT22;34812;49.846;9.610;2023-04-08T04:19:17;4.10;99.90
16327;DHT22;34812;49.846;9.610;2023-04-08T04:20:18;4.10;99.90
16327;DHT22;34812;49.846;9.610;2023-04-08T04:21:21;4.10;99.90
16327;DHT22;34812;49.846;9.610;2023-04-08T04:22:23;4.10;99.90
16327;DHT22;34812;49.846;9.610;2023-04-08T04:23:23;4.10;99.90
16327;DHT22;34812;49.846;9.610;2023-04-08T04:24:25;4.10;99.90
16327;DHT22;34812;49.846;9.610;2023-04-08T04:25:26;4.00;99.90
16327;DHT22;34812;49.846;9.610;2023-04-08T04:26:28;4.10;99.90
16327;DHT22;34812;49.846;9.610;2023-04-08T04:27:28;4.10;99.90
16327;DHT22;34812;49.846;9.610;2023-04-08T04:28:30;4.00;99.90
16327;DHT22;34812;49.846;9.610;2023-04-08T04:29:31;4.00;99.90
16327;DHT22;34812;49.846;9.610;2023-04-08T04:30:33;4.00;99.90
16327;DHT22;34812;49.846;9.610;2023-04-08T04:31:35;4.00;99.90
16327;DHT22;34812;49.846;9.610;2023-04-08T04:32:38;4.00;99.90
16327;DHT22;34812;49.846;9.610;2023-04-08T04:33:39;4.10;99.90
16327;DHT22;34812;49.846;9.610;2023-04-08T04:34:41;4.10;99.90
16327;DHT22;34812;49.846;9.610;2023-04-08T04:35:43;4.00;99.90
16327;DHT22;34812;49.846;9.610;2023-04-08T04:36:45;4.00;99.90
16327;DHT22;34812;49.846;9.610;2023-04-08T04:37:46;4.00;99.90
16327;DHT22;34812;49.846;9.610;2023-04-08T04:38:49;4.00;99.90
16327;DHT22;34812;49.846;9.610;2023-04-08T04:39:50;4.00;99.90
16327;DHT22;34812;49.846;9.610;2023-04-08T04:40:52;4.00;99.90
16327;DHT22;34812;49.846;9.610;2023-04-08T04:41:53;4.00;99.90
16327;DHT22;34812;49.846;9.610;2023-04-08T04:42:54;4.00;99.90
16327;DHT22;34812;49.846;9.610;2023-04-08T04:43:55;4.00;99.90
16327;DHT22;34812;49.846;9.610;2023-04-08T04:44:57;4.00;99.90
16327;DHT22;34812;49.846;9.610;2023-04-08T04:45:58;4.00;99.90
16327;DHT22;34812;49.846;9.610;2023-04-08T04:47:00;4.00;99.90
16327;DHT22;34812;49.846;9.610;2023-04-08T04:48:02;4.00;99.90
16327;DHT22;34812;49.846;9.610;2023-04-08T04:49:04;4.00;99.90
16327;DHT22;34812;49.846;9.610;2023-04-08T04:50:06;3.90;99.90
16327;DHT22;34812;49.846;9.610;2023-04-08T04:51:08;4.00;99.90
16327;DHT22;34812;49.846;9.610;2023-04-08T04:52:09;4.00;99.90
16327;DHT22;34812;49.846;9.610;2023-04-08T04:53:11;4.00;99.90
16327;DHT22;34812;49.846;9.610;2023-04-08T04:54:12;4.00;99.90
16327;DHT22;34812;49.846;9.610;2023-04-08T04:55:13;4.00;99.90
16327;DHT22;34812;49.846;9.610;2023-04-08T04:56:15;4.00;99.90
16327;DHT22;34812;49.846;9.610;2023-04-08T04:57:17;4.00;99.90
16327;DHT22;34812;49.846;9.610;2023-04-08T04:58:17;4.00;99.90
16327;DHT22;34812;49.846;9.610;2023-04-08T04:59:19;4.00;99.90
16327;DHT22;34812;49.846;9.610;2023-04-08T05:00:20;4.00;99.90
16327;DHT22;34812;49.846;9.610;2023-04-08T05:01:22;4.00;99.90
16327;DHT22;34812;49.846;9.610;2023-04-08T05:02:23;4.10;99.90
16327;DHT22;34812;49.846;9.610;2023-04-08T05:03:26;4.10;99.90
16327;DHT22;34812;49.846;9.610;2023-04-08T05:04:27;4.10;99.90
16327;DHT22;34812;49.846;9.610;2023-04-08T05:05:28;4.10;99.90
16327;DHT22;34812;49.846;9.610;2023-04-08T05:06:30;4.10;99.90
16327;DHT22;34812;49.846;9.610;2023-04-08T05:07:34;4.10;99.90
16327;DHT22;34812;49.846;9.610;2023-04-08T05:08:35;4.10;99.90
16327;DHT22;34812;49.846;9.610;2023-04-08T05:09:37;4.00;99.90
16327;DHT22;34812;49.846;9.610;2023-04-08T05:10:40;4.00;99.90
16327;DHT22;34812;49.846;9.610;2023-04-08T05:11:42;4.00;99.90
16327;DHT22;34812;49.846;9.610;2023-04-08T05:12:43;4.00;99.90
16327;DHT22;34812;49.846;9.610;2023-04-08T05:13:44;4.00;99.90
16327;DHT22;34812;49.846;9.610;2023-04-08T05:14:46;4.00;99.90
16327;DHT22;34812;49.846;9.610;2023-04-08T05:15:47;4.00;99.90
16327;DHT22;34812;49.846;9.610;2023-04-08T05:16:48;3.90;99.90
16327;DHT22;34812;49.846;9.610;2023-04-08T05:17:50;4.00;99.90
16327;DHT22;34812;49.846;9.610;2023-04-08T05:18:52;4.00;99.90
16327;DHT22;34812;49.846;9.610;2023-04-08T05:19:54;4.00;99.90
16327;DHT22;34812;49.846;9.610;2023-04-08T05:20:55;4.00;99.90
16327;DHT22;34812;49.846;9.610;2023-04-08T05:21:57;4.00;99.90
16327;DHT22;34812;49.846;9.610;2023-04-08T05:22:57;4.00;99.90
16327;DHT22;34812;49.846;9.610;2023-04-08T05:23:59;4.00;99.90
16327;DHT22;34812;49.846;9.610;2023-04-08T05:25:00;4.00;99.90
16327;DHT22;34812;49.846;9.610;2023-04-08T05:26:02;4.00;99.90
16327;DHT22;34812;49.846;9.610;2023-04-08T05:27:02;3.90;99.90
16327;DHT22;34812;49.846;9.610;2023-04-08T05:28:04;4.00;99.90
16327;DHT22;34812;49.846;9.610;2023-04-08T05:29:05;4.00;99.90
16327;DHT22;34812;49.846;9.610;2023-04-08T05:30:08;4.00;99.90
16327;DHT22;34812;49.846;9.610;2023-04-08T05:31:10;4.00;99.90
16327;DHT22;34812;49.846;9.610;2023-04-08T05:32:11;4.00;99.90
16327;DHT22;34812;49.846;9.610;2023-04-08T05:33:13;4.10;99.90
16327;DHT22;34812;49.846;9.610;2023-04-08T05:34:15;4.10;99.90
16327;DHT22;34812;49.846;9.610;2023-04-08T05:35:22;4.10;99.90
16327;DHT22;34812;49.846;9.610;2023-04-08T05:36:23;4.10;99.90
16327;DHT22;34812;49.846;9.610;2023-04-08T05:37:25;4.10;99.90
16327;DHT22;34812;49.846;9.610;2023-04-08T05:38:26;4.20;99.90
16327;DHT22;34812;49.846;9.610;2023-04-08T05:39:28;4.10;99.90
16327;DHT22;34812;49.846;9.610;2023-04-08T05:40:29;4.20;99.90
16327;DHT22;34812;49.846;9.610;2023-04-08T05:41:30;4.10;99.90
16327;DHT22;34812;49.846;9.610;2023-04-08T05:42:31;4.10;99.90
16327;DHT22;34812;49.846;9.610;2023-04-08T05:43:33;4.20;99.90
16327;DHT22;34812;49.846;9.610;2023-04-08T05:44:34;4.20;99.90
16327;DHT22;34812;49.846;9.610;2023-04-08T05:45:36;4.30;99.90
16327;DHT22;34812;49.846;9.610;2023-04-08T05:46:36;4.30;99.90
16327;DHT22;34812;49.846;9.610;2023-04-08T05:47:38;4.40;99.90
16327;DHT22;34812;49.846;9.610;2023-04-08T05:48:39;4.40;99.90
16327;DHT22;34812;49.846;9.610;2023-04-08T05:49:42;4.40;99.90
16327;DHT22;34812;49.846;9.610;2023-04-08T05:50:43;4.40;99.90
16327;DHT22;34812;49.846;9.610;2023-04-08T05:51:47;4.40;99.90
16327;DHT22;34812;49.846;9.610;2023-04-08T05:52:48;4.50;99.90
16327;DHT22;34812;49.846;9.610;2023-04-08T05:53:50;4.50;99.90
16327;DHT22;34812;49.846;9.610;2023-04-08T05:54:51;4.50;99.90
16327;DHT22;34812;49.846;9.610;2023-04-08T05:55:53;4.50;99.90
16327;DHT22;34812;49.846;9.610;2023-04-08T05:56:55;4.50;99.90
16327;DHT22;34812;49.846;9.610;2023-04-08T05:57:55;4.40;99.90
16327;DHT22;34812;49.846;9.610;2023-04-08T05:58:57;4.40;99.90
16327;DHT22;34812;49.846;9.610;2023-04-08T05:59:58;4.50;99.90
16327;DHT22;34812;49.846;9.610;2023-04-08T06:01:00;4.50;99.90
16327;DHT22;34812;49.846;9.610;2023-04-08T06:02:01;4.60;99.90
16327;DHT22;34812;49.846;9.610;2023-04-08T06:03:02;4.60;99.90
16327;DHT22;34812;49.846;9.610;2023-04-08T06:04:03;4.50;99.90
16327;DHT22;34812;49.846;9.610;2023-04-08T06:05:07;4.60;99.90
16327;DHT22;34812;49.846;9.610;2023-04-08T06:06:08;4.70;99.90
16327;DHT22;34812;49.846;9.610;2023-04-08T06:07:11;4.70;99.90
16327;DHT22;34812;49.846;9.610;2023-04-08T06:08:12;4.70;99.90
16327;DHT22;34812;49.846;9.610;2023-04-08T06:09:14;4.80;99.90
16327;DHT22;34812;49.846;9.610;2023-04-08T06:10:15;4.90;99.90
16327;DHT22;34812;49.846;9.610;2023-04-08T06:11:17;4.90;99.90
16327;DHT22;34812;49.846;9.610;2023-04-08T06:12:17;5.00;99.90
16327;DHT22;34812;49.846;9.610;2023-04-08T06:13:19;5.00;99.90
16327;DHT22;34812;49.846;9.610;2023-04-08T06:14:21;5.00;99.90
16327;DHT22;34812;49.846;9.610;2023-04-08T06:15:23;5.00;99.90
16327;DHT22;34812;49.846;9.610;2023-04-08T06:16:23;5.10;99.90
16327;DHT22;34812;49.846;9.610;2023-04-08T06:17:26;5.10;99.90
16327;DHT22;34812;49.846;9.610;2023-04-08T06:18:26;5.20;99.90
16327;DHT22;34812;49.846;9.610;2023-04-08T06:19:28;5.20;99.90
16327;DHT22;34812;49.846;9.610;2023-04-08T06:20:30;5.30;99.90
16327;DHT22;34812;49.846;9.610;2023-04-08T06:21:32;5.30;99.90
16327;DHT22;34812;49.846;9.610;2023-04-08T06:22:33;5.30;99.90
16327;DHT22;34812;49.846;9.610;2023-04-08T06:23:35;5.40;99.90
16327;DHT22;34812;49.846;9.610;2023-04-08T06:24:36;5.40;99.90
16327;DHT22;34812;49.846;9.610;2023-04-08T06:25:38;5.40;99.90
16327;DHT22;34812;49.846;9.610;2023-04-08T06:26:39;5.40;99.90
16327;DHT22;34812;49.846;9.610;2023-04-08T06:27:41;5.50;99.90
16327;DHT22;34812;49.846;9.610;2023-04-08T06:28:41;5.60;99.90
16327;DHT22;34812;49.846;9.610;2023-04-08T06:29:43;5.70;99.90
16327;DHT22;34812;49.846;9.610;2023-04-08T06:30:44;5.80;99.90
16327;DHT22;34812;49.846;9.610;2023-04-08T06:31:46;5.80;99.90
16327;DHT22;34812;49.846;9.610;2023-04-08T06:32:47;5.90;99.90
16327;DHT22;34812;49.846;9.610;2023-04-08T06:33:48;6.00;99.90
16327;DHT22;34812;49.846;9.610;2023-04-08T06:34:49;6.10;99.90
16327;DHT22;34812;49.846;9.610;2023-04-08T06:36:00;6.20;99.90
16327;DHT22;34812;49.846;9.610;2023-04-08T06:37:03;6.30;99.90
16327;DHT22;34812;49.846;9.610;2023-04-08T06:38:03;6.30;99.90
16327;DHT22;34812;49.846;9.610;2023-04-08T06:39:05;6.40;99.90